Detalii statie REFDANCOM [00001D06]

Toti senzorii

Date Temperatura solului [C]Precipitatii [mm]Voltaj baterie [mV]Leaf Wetness [Min]HC Air temperature [C]HC Relative humidity [%]Punctul de roua [C]
medieminmaxsumaultimatimpmedieminmaxmediemediemin
2018-12-09 16:00:00 0 6826 8.63 8.05 8.98 0 0 0
2018-12-09 17:00:00 0 6786 6.26 4.26 7.83 0 0 0
2018-12-09 18:00:00 0 6766 3.51 2.91 4.69 0 0 0
2018-12-09 19:00:00 0 6766 3.09 2.6 3.33 0 0 0
2018-12-09 20:00:00 0 6748 2.6 2.14 3.11 0 0 0
2018-12-09 21:00:00 0 6748 1.63 1.29 1.86 0 0 0
2018-12-09 22:00:00 0 6748 0.76 0.39 1.08 0 0 0
2018-12-09 23:00:00 0 6738 -0.56 -1.05 0.15 0 0 0
2018-12-10 00:00:00 0 6738 -0.94 -1.63 -0.54 0 0 0
2018-12-10 01:00:00 0 6738 -1.12 -1.37 -0.82 0 0 0
2018-12-10 02:00:00 0 6728 -1.59 -2.16 -0.96 0 0 0
2018-12-10 03:00:00 0 6718 -2.12 -2.59 -1.63 0 0 0
2018-12-10 04:00:00 0 6718 -1.64 -2.18 -1.45 0 0 0
2018-12-10 05:00:00 0 6728 -2.41 -2.7 -2.17 0 0 0
2018-12-10 06:00:00 0 6728 -2.16 -2.29 -2.07 0 0 0
2018-12-10 07:00:00 0 6718 -1.99 -2.24 -1.75 0 0 0
2018-12-10 08:00:00 0 6718 -1.84 -1.97 -1.64 0 0 0
2018-12-10 09:00:00 0 6748 -1.36 -1.63 -0.93 0 0 0
2018-12-10 10:00:00 0 6844 -0.46 -0.84 -0.06 0 0 0
2018-12-10 11:00:00 0.2 6854 1.12 0.02 1.88 0 0 0
2018-12-10 12:00:00 0 6854 2.57 1.97 3.04 0 0 0
2018-12-10 13:00:00 0 7060 3.94 3.02 4.57 0 0 0
2018-12-10 14:00:00 0 7176 5.48 5.26 5.76 0 0 0
2018-12-10 15:00:00 0 6904 5.66 5.14 6.12 0 0 0
2018-12-10 16:00:00 0 6776 5.89 5.39 6.24 0 0 0
2018-12-10 17:00:00 0 6756 4.67 4.25 5.28 0 0 0
2018-12-10 18:00:00 0 6748 3.77 3.27 4.25 0 0 0
2018-12-10 19:00:00 0 6738 2.65 2.22 3.33 0 0 0
2018-12-10 20:00:00 0 6728 2.85 2.29 3.38 0 0 0
2018-12-10 21:00:00 0 6728 4.61 2.98 5.23 0 0 0
2018-12-10 22:00:00 0 6728 5.37 5.13 5.6 0 0 0
2018-12-10 23:00:00 0 6718 5.2 5.03 5.41 0 0 0
2018-12-11 00:00:00 0 6718 4.99 4.9 5.18 0 0 0
2018-12-11 01:00:00 0 6718 4.87 4.78 5.01 0 0 0
2018-12-11 02:00:00 0 6718 4.81 4.72 4.89 0 0 0
2018-12-11 03:00:00 0 6708 4.64 4.48 4.78 0 0 0
2018-12-11 04:00:00 0 6718 4.47 4.36 4.58 0 0 0
2018-12-11 05:00:00 0 6708 4.02 3.78 4.36 0 0 0
2018-12-11 06:00:00 0 6698 3.75 3.54 3.99 0 0 0
2018-12-11 07:00:00 0 6698 3.51 3.39 3.72 0 0 0
2018-12-11 08:00:00 0 6698 3.48 3.32 3.62 0 0 0
2018-12-11 09:00:00 0 6738 3.26 3.08 3.36 0 0 0
2018-12-11 10:00:00 0 6816 3.72 3.26 4.07 0 0 0
2018-12-11 11:00:00 0 6864 4.46 4.02 4.75 0 0 0
2018-12-11 12:00:00 0 6844 4.84 4.59 5.11 0 0 0
2018-12-11 13:00:00 0 6894 5.49 5.03 6 0 0 0
2018-12-11 14:00:00 0 7138 6.32 6.07 6.81 0 0 0
2018-12-11 15:00:00 0 6952 6.73 6.38 7.02 0 0 0